sensor_id;sensor_type;location;lat;lon;timestamp;pressure;altitude;pressure_sealevel;temperature;humidity
73457;BME280;61691;53.072;6.582;2023-11-22T00:00:17;102872.19;;;5.10;80.63
73457;BME280;61691;53.072;6.582;2023-11-22T00:02:44;102878.44;;;5.06;80.88
73457;BME280;61691;53.072;6.582;2023-11-22T00:05:10;102897.63;;;5.10;80.49
73457;BME280;61691;53.072;6.582;2023-11-22T00:07:38;102889.13;;;5.01;80.61
73457;BME280;61691;53.072;6.582;2023-11-22T00:10:05;102902.13;;;5.04;80.80
73457;BME280;61691;53.072;6.582;2023-11-22T00:12:32;102897.00;;;5.01;80.72
73457;BME280;61691;53.072;6.582;2023-11-22T00:15:06;102907.59;;;4.98;81.03
73457;BME280;61691;53.072;6.582;2023-11-22T00:17:34;102900.78;;;4.93;80.89
73457;BME280;61691;53.072;6.582;2023-11-22T00:20:01;102891.22;;;4.90;80.72
73457;BME280;61691;53.072;6.582;2023-11-22T00:22:32;102864.63;;;4.73;80.78
73457;BME280;61691;53.072;6.582;2023-11-22T00:25:00;102885.53;;;4.76;80.84
73457;BME280;61691;53.072;6.582;2023-11-22T00:27:28;102861.50;;;4.60;80.59
73457;BME280;61691;53.072;6.582;2023-11-22T00:29:58;102889.09;;;4.74;80.72
73457;BME280;61691;53.072;6.582;2023-11-22T00:32:25;102899.69;;;4.72;81.08
73457;BME280;61691;53.072;6.582;2023-11-22T00:34:52;102882.53;;;4.59;80.83
73457;BME280;61691;53.072;6.582;2023-11-22T00:37:19;102897.28;;;4.64;80.85
73457;BME280;61691;53.072;6.582;2023-11-22T00:39:46;102894.78;;;4.60;80.95
73457;BME280;61691;53.072;6.582;2023-11-22T00:42:13;102894.78;;;4.60;81.07
73457;BME280;61691;53.072;6.582;2023-11-22T00:44:40;102885.63;;;4.44;80.96
73457;BME280;61691;53.072;6.582;2023-11-22T00:47:06;102893.38;;;4.48;80.72
73457;BME280;61691;53.072;6.582;2023-11-22T00:49:33;102918.59;;;4.54;81.06
73457;BME280;61691;53.072;6.582;2023-11-22T00:52:00;102923.13;;;4.49;80.77
73457;BME280;61691;53.072;6.582;2023-11-22T00:54:29;102891.28;;;4.30;80.68
73457;BME280;61691;53.072;6.582;2023-11-22T00:56:56;102876.03;;;4.13;81.02
73457;BME280;61691;53.072;6.582;2023-11-22T00:59:23;102905.28;;;4.31;81.01
73457;BME280;61691;53.072;6.582;2023-11-22T01:01:49;102926.84;;;4.42;81.04
73457;BME280;61691;53.072;6.582;2023-11-22T01:04:16;102927.03;;;4.36;80.70
73457;BME280;61691;53.072;6.582;2023-11-22T01:06:43;102929.69;;;4.34;81.16
73457;BME280;61691;53.072;6.582;2023-11-22T01:09:10;102924.56;;;4.29;81.04
73457;BME280;61691;53.072;6.582;2023-11-22T01:11:40;102938.56;;;4.28;81.07
73457;BME280;61691;53.072;6.582;2023-11-22T01:14:07;102950.00;;;4.27;80.97
73457;BME280;61691;53.072;6.582;2023-11-22T01:16:34;102948.59;;;4.14;81.03
73457;BME280;61691;53.072;6.582;2023-11-22T01:19:00;102954.72;;;4.15;80.82
73457;BME280;61691;53.072;6.582;2023-11-22T01:21:27;102955.78;;;4.08;80.82
73457;BME280;61691;53.072;6.582;2023-11-22T01:23:54;102963.56;;;4.12;81.07
73457;BME280;61691;53.072;6.582;2023-11-22T01:26:21;102920.34;;;3.92;80.87
73457;BME280;61691;53.072;6.582;2023-11-22T01:28:48;102933.19;;;4.02;80.80
73457;BME280;61691;53.072;6.582;2023-11-22T01:31:15;102928.88;;;4.00;80.91
73457;BME280;61691;53.072;6.582;2023-11-22T01:33:42;102919.56;;;3.89;81.03
73457;BME280;61691;53.072;6.582;2023-11-22T01:36:09;102915.22;;;3.88;80.74
73457;BME280;61691;53.072;6.582;2023-11-22T01:38:35;102929.91;;;3.94;80.87
73457;BME280;61691;53.072;6.582;2023-11-22T01:41:02;102916.25;;;3.83;81.14
73457;BME280;61691;53.072;6.582;2023-11-22T01:43:29;102912.78;;;3.81;81.05
73457;BME280;61691;53.072;6.582;2023-11-22T01:45:55;102918.97;;;3.78;81.19
73457;BME280;61691;53.072;6.582;2023-11-22T01:48:23;102941.50;;;3.85;80.94
73457;BME280;61691;53.072;6.582;2023-11-22T01:50:49;102931.22;;;3.78;80.98
73457;BME280;61691;53.072;6.582;2023-11-22T01:53:16;102909.91;;;3.58;80.83
73457;BME280;61691;53.072;6.582;2023-11-22T01:55:44;102949.75;;;3.72;80.66
73457;BME280;61691;53.072;6.582;2023-11-22T01:58:12;102947.25;;;3.67;80.91
73457;BME280;61691;53.072;6.582;2023-11-22T02:00:47;102949.91;;;3.66;81.17
73457;BME280;61691;53.072;6.582;2023-11-22T02:03:16;102946.44;;;3.64;81.02
73457;BME280;61691;53.072;6.582;2023-11-22T02:05:43;102943.09;;;3.59;81.10
73457;BME280;61691;53.072;6.582;2023-11-22T02:08:11;102916.34;;;3.44;80.73
73457;BME280;61691;53.072;6.582;2023-11-22T02:10:39;102900.19;;;3.27;80.99
73457;BME280;61691;53.072;6.582;2023-11-22T02:13:06;102945.81;;;3.54;80.93
73457;BME280;61691;53.072;6.582;2023-11-22T02:15:34;102955.53;;;3.50;81.16
73457;BME280;61691;53.072;6.582;2023-11-22T02:18:02;102957.16;;;3.55;81.17
73457;BME280;61691;53.072;6.582;2023-11-22T02:20:38;102950.28;;;3.50;80.97
73457;BME280;61691;53.072;6.582;2023-11-22T02:23:09;102944.16;;;3.52;81.26
73457;BME280;61691;53.072;6.582;2023-11-22T02:25:37;102945.13;;;3.46;81.09
73457;BME280;61691;53.072;6.582;2023-11-22T02:28:03;102947.72;;;3.47;81.05
73457;BME280;61691;53.072;6.582;2023-11-22T02:30:30;102956.53;;;3.45;81.10
73457;BME280;61691;53.072;6.582;2023-11-22T02:32:58;102943.69;;;3.34;81.04
73457;BME280;61691;53.072;6.582;2023-11-22T02:35:24;102946.19;;;3.39;81.13
73457;BME280;61691;53.072;6.582;2023-11-22T02:37:53;102931.41;;;3.36;81.02
73457;BME280;61691;53.072;6.582;2023-11-22T02:40:21;102932.28;;;3.37;80.79
73457;BME280;61691;53.072;6.582;2023-11-22T02:42:49;102923.56;;;3.35;80.91
73457;BME280;61691;53.072;6.582;2023-11-22T02:45:18;102933.25;;;3.31;80.56
73457;BME280;61691;53.072;6.582;2023-11-22T02:47:45;102910.81;;;3.21;80.75
73457;BME280;61691;53.072;6.582;2023-11-22T02:50:13;102923.81;;;3.24;80.80
73457;BME280;61691;53.072;6.582;2023-11-22T02:52:41;102895.50;;;3.03;80.90
73457;BME280;61691;53.072;6.582;2023-11-22T02:55:08;102904.25;;;3.03;80.88
73457;BME280;61691;53.072;6.582;2023-11-22T02:57:38;102942.31;;;3.18;80.92
73457;BME280;61691;53.072;6.582;2023-11-22T03:00:09;102945.03;;;3.15;81.07
73457;BME280;61691;53.072;6.582;2023-11-22T03:02:40;102946.78;;;3.15;80.79
73457;BME280;61691;53.072;6.582;2023-11-22T03:05:08;102944.19;;;3.13;80.57
73457;BME280;61691;53.072;6.582;2023-11-22T03:07:36;102948.63;;;3.09;81.05
73457;BME280;61691;53.072;6.582;2023-11-22T03:10:04;102939.22;;;3.01;80.75
73457;BME280;61691;53.072;6.582;2023-11-22T03:12:31;102957.50;;;3.04;81.05
73457;BME280;61691;53.072;6.582;2023-11-22T03:14:58;102868.88;;;2.47;80.78
73457;BME280;61691;53.072;6.582;2023-11-22T03:17:26;102943.97;;;2.85;81.11
73457;BME280;61691;53.072;6.582;2023-11-22T03:19:55;102982.88;;;3.02;80.76
73457;BME280;61691;53.072;6.582;2023-11-22T03:22:27;102985.56;;;2.99;81.14
73457;BME280;61691;53.072;6.582;2023-11-22T03:24:57;102979.78;;;2.85;80.99
73457;BME280;61691;53.072;6.582;2023-11-22T03:27:25;102985.75;;;2.91;80.92
73457;BME280;61691;53.072;6.582;2023-11-22T03:29:52;102997.13;;;2.89;81.05
73457;BME280;61691;53.072;6.582;2023-11-22T03:32:19;102922.16;;;2.43;80.71
73457;BME280;61691;53.072;6.582;2023-11-22T03:34:46;103023.13;;;2.98;80.86
73457;BME280;61691;53.072;6.582;2023-11-22T03:37:13;102965.34;;;2.64;80.85
73457;BME280;61691;53.072;6.582;2023-11-22T03:39:39;103022.25;;;2.99;80.25
73457;BME280;61691;53.072;6.582;2023-11-22T03:42:06;103023.13;;;2.98;81.16
73457;BME280;61691;53.072;6.582;2023-11-22T03:44:33;102967.94;;;2.65;80.98
73457;BME280;61691;53.072;6.582;2023-11-22T03:47:00;103008.44;;;2.92;80.55
73457;BME280;61691;53.072;6.582;2023-11-22T03:49:27;103009.34;;;2.90;80.82
73457;BME280;61691;53.072;6.582;2023-11-22T03:51:54;102988.72;;;2.75;80.87
73457;BME280;61691;53.072;6.582;2023-11-22T03:54:21;103013.72;;;2.89;80.67
73457;BME280;61691;53.072;6.582;2023-11-22T03:56:47;103014.72;;;2.84;80.73
73457;BME280;61691;53.072;6.582;2023-11-22T03:59:14;102980.16;;;2.66;80.40
73457;BME280;61691;53.072;6.582;2023-11-22T04:01:41;102998.13;;;2.83;80.54
73457;BME280;61691;53.072;6.582;2023-11-22T04:04:07;102997.41;;;2.77;80.39
73457;BME280;61691;53.072;6.582;2023-11-22T04:06:36;102988.75;;;2.71;80.39
73457;BME280;61691;53.072;6.582;2023-11-22T04:09:03;103000.97;;;2.72;80.43
73457;BME280;61691;53.072;6.582;2023-11-22T04:11:30;103007.94;;;2.73;80.65
73457;BME280;61691;53.072;6.582;2023-11-22T04:13:58;103008.00;;;2.70;80.71
73457;BME280;61691;53.072;6.582;2023-11-22T04:16:25;103003.66;;;2.69;80.48
73457;BME280;61691;53.072;6.582;2023-11-22T04:18:52;103004.63;;;2.64;80.62
73457;BME280;61691;53.072;6.582;2023-11-22T04:21:19;102989.16;;;2.53;80.38
73457;BME280;61691;53.072;6.582;2023-11-22T04:23:46;102993.41;;;2.59;80.56
73457;BME280;61691;53.072;6.582;2023-11-22T04:26:15;102957.28;;;2.33;80.70
73457;BME280;61691;53.072;6.582;2023-11-22T04:28:42;103000.53;;;2.51;80.66
73457;BME280;61691;53.072;6.582;2023-11-22T04:31:09;102979.75;;;2.43;80.48
73457;BME280;61691;53.072;6.582;2023-11-22T04:33:35;102980.75;;;2.36;80.23
73457;BME280;61691;53.072;6.582;2023-11-22T04:36:03;103008.50;;;2.46;80.46
73457;BME280;61691;53.072;6.582;2023-11-22T04:38:30;102997.31;;;2.38;80.45
73457;BME280;61691;53.072;6.582;2023-11-22T04:40:57;102979.28;;;2.23;80.68
73457;BME280;61691;53.072;6.582;2023-11-22T04:43:23;103004.31;;;2.36;80.36
73457;BME280;61691;53.072;6.582;2023-11-22T04:45:50;103006.06;;;2.36;80.74
73457;BME280;61691;53.072;6.582;2023-11-22T04:48:17;102989.66;;;2.26;80.29
73457;BME280;61691;53.072;6.582;2023-11-22T04:50:43;103012.13;;;2.39;80.74
73457;BME280;61691;53.072;6.582;2023-11-22T04:53:10;103008.69;;;2.34;80.85
73457;BME280;61691;53.072;6.582;2023-11-22T04:55:37;102993.16;;;2.26;80.55
73457;BME280;61691;53.072;6.582;2023-11-22T04:58:04;103011.31;;;2.34;80.56
73457;BME280;61691;53.072;6.582;2023-11-22T05:00:30;103001.78;;;2.33;80.67
73457;BME280;61691;53.072;6.582;2023-11-22T05:02:57;103012.25;;;2.33;80.66
73457;BME280;61691;53.072;6.582;2023-11-22T05:05:24;103022.72;;;2.33;80.33
73457;BME280;61691;53.072;6.582;2023-11-22T05:07:51;103026.13;;;2.35;80.46
73457;BME280;61691;53.072;6.582;2023-11-22T05:10:18;103020.84;;;2.38;80.88
73457;BME280;61691;53.072;6.582;2023-11-22T05:12:45;103012.25;;;2.33;80.37
73457;BME280;61691;53.072;6.582;2023-11-22T05:15:12;102996.72;;;2.24;80.40
73457;BME280;61691;53.072;6.582;2023-11-22T05:17:40;103004.38;;;2.33;80.71
73457;BME280;61691;53.072;6.582;2023-11-22T05:20:07;102984.63;;;2.17;80.50
73457;BME280;61691;53.072;6.582;2023-11-22T05:22:37;102959.69;;;1.98;80.58
73457;BME280;61691;53.072;6.582;2023-11-22T05:25:04;102987.28;;;2.15;80.59
73457;BME280;61691;53.072;6.582;2023-11-22T05:27:33;103001.09;;;2.22;80.73
73457;BME280;61691;53.072;6.582;2023-11-22T05:29:59;102967.25;;;2.13;80.60
73457;BME280;61691;53.072;6.582;2023-11-22T05:32:28;103001.69;;;2.36;80.64
73457;BME280;61691;53.072;6.582;2023-11-22T05:34:55;102950.94;;;2.00;80.73
73457;BME280;61691;53.072;6.582;2023-11-22T05:37:22;102977.78;;;2.10;80.64
73457;BME280;61691;53.072;6.582;2023-11-22T05:39:51;103017.41;;;2.36;80.72
73457;BME280;61691;53.072;6.582;2023-11-22T05:42:17;102991.59;;;2.18;80.47
73457;BME280;61691;53.072;6.582;2023-11-22T05:44:44;103028.00;;;2.30;80.40
73457;BME280;61691;53.072;6.582;2023-11-22T05:47:11;103029.66;;;2.34;80.76
73457;BME280;61691;53.072;6.582;2023-11-22T05:49:40;103017.56;;;2.27;80.98
73457;BME280;61691;53.072;6.582;2023-11-22T05:52:06;103028.78;;;2.33;80.68
73457;BME280;61691;53.072;6.582;2023-11-22T05:54:33;103012.28;;;2.30;80.99
73457;BME280;61691;53.072;6.582;2023-11-22T05:57:00;103017.53;;;2.30;81.21
73457;BME280;61691;53.072;6.582;2023-11-22T05:59:27;103022.66;;;2.34;80.93
73457;BME280;61691;53.072;6.582;2023-11-22T06:01:53;103011.31;;;2.34;80.99
73457;BME280;61691;53.072;6.582;2023-11-22T06:04:20;103012.03;;;2.42;80.97
73457;BME280;61691;53.072;6.582;2023-11-22T06:06:47;103001.66;;;2.39;80.84
73457;BME280;61691;53.072;6.582;2023-11-22T06:09:14;102986.13;;;2.30;81.13
73457;BME280;61691;53.072;6.582;2023-11-22T06:11:41;103009.69;;;2.28;81.10
73457;BME280;61691;53.072;6.582;2023-11-22T06:14:08;103024.53;;;2.28;80.82
73457;BME280;61691;53.072;6.582;2023-11-22T06:16:35;102962.53;;;1.84;80.86
73457;BME280;61691;53.072;6.582;2023-11-22T06:19:02;103030.84;;;2.18;80.85
73457;BME280;61691;53.072;6.582;2023-11-22T06:21:28;103050.69;;;2.29;81.08
73457;BME280;61691;53.072;6.582;2023-11-22T06:23:55;103015.34;;;2.04;81.31
73457;BME280;61691;53.072;6.582;2023-11-22T06:26:25;103050.66;;;2.31;81.24
73457;BME280;61691;53.072;6.582;2023-11-22T06:28:52;103059.38;;;2.30;81.43
73457;BME280;61691;53.072;6.582;2023-11-22T06:31:19;103043.00;;;2.19;81.34
73457;BME280;61691;53.072;6.582;2023-11-22T06:33:46;103052.53;;;2.23;81.00
73457;BME280;61691;53.072;6.582;2023-11-22T06:36:12;103045.56;;;2.23;81.28
73457;BME280;61691;53.072;6.582;2023-11-22T06:38:41;103056.00;;;2.25;81.18
73457;BME280;61691;53.072;6.582;2023-11-22T06:41:08;103063.84;;;2.25;81.25
73457;BME280;61691;53.072;6.582;2023-11-22T06:43:35;103054.44;;;2.15;81.32
73457;BME280;61691;53.072;6.582;2023-11-22T06:46:02;103040.50;;;2.13;81.31
73457;BME280;61691;53.072;6.582;2023-11-22T06:48:32;103037.97;;;2.10;81.32
73457;BME280;61691;53.072;6.582;2023-11-22T06:51:00;103049.16;;;2.18;80.95
73457;BME280;61691;53.072;6.582;2023-11-22T06:53:27;103042.13;;;2.20;81.46
73457;BME280;61691;53.072;6.582;2023-11-22T06:55:54;103043.06;;;2.17;81.17
73457;BME280;61691;53.072;6.582;2023-11-22T06:58:21;102942.13;;;1.55;81.57
73457;BME280;61691;53.072;6.582;2023-11-22T07:00:48;103045.81;;;2.10;81.39
73457;BME280;61691;53.072;6.582;2023-11-22T07:03:15;103034.53;;;2.05;81.29
73457;BME280;61691;53.072;6.582;2023-11-22T07:05:43;103036.38;;;2.00;81.29
73457;BME280;61691;53.072;6.582;2023-11-22T07:08:10;103008.72;;;1.86;81.75
73457;BME280;61691;53.072;6.582;2023-11-22T07:10:43;103008.63;;;1.91;81.59
73457;BME280;61691;53.072;6.582;2023-11-22T07:13:11;103032.00;;;2.02;81.92
73457;BME280;61691;53.072;6.582;2023-11-22T07:15:39;103027.69;;;1.96;82.06
73457;BME280;61691;53.072;6.582;2023-11-22T07:18:07;103013.06;;;1.87;82.13
73457;BME280;61691;53.072;6.582;2023-11-22T07:20:36;103033.75;;;2.00;82.03
73457;BME280;61691;53.072;6.582;2023-11-22T07:23:03;103032.84;;;2.02;82.37
73457;BME280;61691;53.072;6.582;2023-11-22T07:25:31;103019.09;;;1.89;82.49
73457;BME280;61691;53.072;6.582;2023-11-22T07:27:58;103011.31;;;1.88;82.38
73457;BME280;61691;53.072;6.582;2023-11-22T07:30:25;103027.56;;;2.04;83.21
73457;BME280;61691;53.072;6.582;2023-11-22T07:32:56;103012.59;;;2.12;82.91
73457;BME280;61691;53.072;6.582;2023-11-22T07:35:26;103001.34;;;2.10;82.69
73457;BME280;61691;53.072;6.582;2023-11-22T07:37:55;102994.47;;;2.03;82.61
73457;BME280;61691;53.072;6.582;2023-11-22T07:40:22;103008.09;;;2.20;82.92
73457;BME280;61691;53.072;6.582;2023-11-22T07:42:49;103029.75;;;2.28;83.18
73457;BME280;61691;53.072;6.582;2023-11-22T07:45:16;103022.78;;;2.27;82.86
73457;BME280;61691;53.072;6.582;2023-11-22T07:47:43;103006.34;;;2.20;83.03
73457;BME280;61691;53.072;6.582;2023-11-22T07:50:11;103036.56;;;2.38;83.27
73457;BME280;61691;53.072;6.582;2023-11-22T07:52:38;103048.69;;;2.42;83.48
73457;BME280;61691;53.072;6.582;2023-11-22T07:55:07;103046.31;;;2.30;83.22
73457;BME280;61691;53.072;6.582;2023-11-22T07:57:37;103087.78;;;2.53;83.34
73457;BME280;61691;53.072;6.582;2023-11-22T08:00:06;103083.44;;;2.50;83.38
73457;BME280;61691;53.072;6.582;2023-11-22T08:02:34;103044.47;;;2.33;83.47
73457;BME280;61691;53.072;6.582;2023-11-22T08:05:04;103074.75;;;2.48;83.37
73457;BME280;61691;53.072;6.582;2023-11-22T08:07:36;103063.38;;;2.49;83.69
73457;BME280;61691;53.072;6.582;2023-11-22T08:10:07;103070.19;;;2.59;83.86
73457;BME280;61691;53.072;6.582;2023-11-22T08:12:48;103090.06;;;2.69;83.99
73457;BME280;61691;53.072;6.582;2023-11-22T08:15:17;103067.41;;;2.68;84.00
73457;BME280;61691;53.072;6.582;2023-11-22T08:17:47;103055.16;;;2.70;84.03
73457;BME280;61691;53.072;6.582;2023-11-22T08:20:14;103082.69;;;2.90;83.98
73457;BME280;61691;53.072;6.582;2023-11-22T08:22:45;103086.03;;;2.98;83.64
73457;BME280;61691;53.072;6.582;2023-11-22T08:25:13;103088.53;;;3.02;83.90
73457;BME280;61691;53.072;6.582;2023-11-22T08:27:40;103092.03;;;3.03;83.87
73457;BME280;61691;53.072;6.582;2023-11-22T08:30:10;103085.84;;;3.07;83.64
73457;BME280;61691;53.072;6.582;2023-11-22T08:32:43;103096.09;;;3.16;83.69
73457;BME280;61691;53.072;6.582;2023-11-22T08:35:14;103094.19;;;3.24;83.53
73457;BME280;61691;53.072;6.582;2023-11-22T08:37:41;103082.00;;;3.23;83.71
73457;BME280;61691;53.072;6.582;2023-11-22T08:40:09;103089.66;;;3.32;83.59
73457;BME280;61691;53.072;6.582;2023-11-22T08:42:41;103057.44;;;3.27;83.55
73457;BME280;61691;53.072;6.582;2023-11-22T08:45:08;103064.25;;;3.36;83.82
73457;BME280;61691;53.072;6.582;2023-11-22T08:47:36;103072.78;;;3.45;83.92
73457;BME280;61691;53.072;6.582;2023-11-22T08:50:03;103077.94;;;3.48;83.40
73457;BME280;61691;53.072;6.582;2023-11-22T08:52:30;103090.88;;;3.56;83.72
73457;BME280;61691;53.072;6.582;2023-11-22T08:55:00;103089.94;;;3.59;83.78
73457;BME280;61691;53.072;6.582;2023-11-22T08:57:27;103086.28;;;3.66;83.92
73457;BME280;61691;53.072;6.582;2023-11-22T08:59:53;103070.59;;;3.63;83.59
73457;BME280;61691;53.072;6.582;2023-11-22T09:02:21;103066.19;;;3.65;84.06
73457;BME280;61691;53.072;6.582;2023-11-22T09:04:49;103070.34;;;3.75;83.89
73457;BME280;61691;53.072;6.582;2023-11-22T09:07:16;103072.88;;;3.78;83.87
73457;BME280;61691;53.072;6.582;2023-11-22T09:09:43;103023.75;;;3.47;83.77
73457;BME280;61691;53.072;6.582;2023-11-22T09:12:09;103064.81;;;3.85;83.51
73457;BME280;61691;53.072;6.582;2023-11-22T09:14:40;103070.88;;;3.89;83.69
73457;BME280;61691;53.072;6.582;2023-11-22T09:17:10;103060.59;;;3.80;83.50
73457;BME280;61691;53.072;6.582;2023-11-22T09:19:37;103083.91;;;3.92;83.79
73457;BME280;61691;53.072;6.582;2023-11-22T09:22:04;103075.94;;;3.97;83.84
73457;BME280;61691;53.072;6.582;2023-11-22T09:24:33;103070.66;;;3.98;83.36
73457;BME280;61691;53.072;6.582;2023-11-22T09:27:00;103064.47;;;3.99;83.70
73457;BME280;61691;53.072;6.582;2023-11-22T09:29:28;103069.66;;;4.02;83.91
73457;BME280;61691;53.072;6.582;2023-11-22T09:31:55;103065.34;;;4.00;83.82
73457;BME280;61691;53.072;6.582;2023-11-22T09:34:23;103068.75;;;4.03;84.07
73457;BME280;61691;53.072;6.582;2023-11-22T09:36:50;103066.03;;;4.06;83.71
73457;BME280;61691;53.072;6.582;2023-11-22T09:39:17;103072.78;;;4.16;83.82
73457;BME280;61691;53.072;6.582;2023-11-22T09:41:48;103075.41;;;4.16;83.86
73457;BME280;61691;53.072;6.582;2023-11-22T09:44:15;103072.72;;;4.19;83.72
73457;BME280;61691;53.072;6.582;2023-11-22T09:46:43;103066.28;;;4.31;84.07
73457;BME280;61691;53.072;6.582;2023-11-22T09:49:15;103028.19;;;4.16;84.50
73457;BME280;61691;53.072;6.582;2023-11-22T09:51:47;103060.66;;;4.45;84.14
73457;BME280;61691;53.072;6.582;2023-11-22T09:54:16;103045.81;;;4.44;83.59
73457;BME280;61691;53.072;6.582;2023-11-22T09:56:45;103020.63;;;4.37;83.97
73457;BME280;61691;53.072;6.582;2023-11-22T09:59:20;103056.84;;;4.58;83.99
73457;BME280;61691;53.072;6.582;2023-11-22T10:01:50;103039.31;;;4.58;83.75
73457;BME280;61691;53.072;6.582;2023-11-22T10:04:19;103045.25;;;4.65;83.76
73457;BME280;61691;53.072;6.582;2023-11-22T10:06:47;103033.09;;;4.61;84.06
73457;BME280;61691;53.072;6.582;2023-11-22T10:09:14;103025.97;;;4.66;83.73
73457;BME280;61691;53.072;6.582;2023-11-22T10:11:41;103022.16;;;4.76;83.75
73457;BME280;61691;53.072;6.582;2023-11-22T10:14:10;103032.59;;;4.79;83.58
73457;BME280;61691;53.072;6.582;2023-11-22T10:16:36;103008.63;;;4.59;83.70
73457;BME280;61691;53.072;6.582;2023-11-22T10:19:04;103044.72;;;4.83;83.68
73457;BME280;61691;53.072;6.582;2023-11-22T10:21:34;103048.09;;;4.88;83.62
73457;BME280;61691;53.072;6.582;2023-11-22T10:24:02;103025.59;;;4.78;83.74
73457;BME280;61691;53.072;6.582;2023-11-22T10:26:30;103048.16;;;4.85;83.51
73457;BME280;61691;53.072;6.582;2023-11-22T10:28:57;103044.44;;;4.92;83.58
73457;BME280;61691;53.072;6.582;2023-11-22T10:31:25;103032.19;;;4.93;83.41
73457;BME280;61691;53.072;6.582;2023-11-22T10:33:53;103054.44;;;5.11;83.34
73457;BME280;61691;53.072;6.582;2023-11-22T10:36:21;103033.50;;;5.07;83.56
73457;BME280;61691;53.072;6.582;2023-11-22T10:38:48;103050.53;;;5.24;83.18
73457;BME280;61691;53.072;6.582;2023-11-22T10:41:15;103022.78;;;5.14;83.10
73457;BME280;61691;53.072;6.582;2023-11-22T10:43:44;103040.50;;;5.36;83.38
73457;BME280;61691;53.072;6.582;2023-11-22T10:46:12;103014.97;;;5.40;82.94
73457;BME280;61691;53.072;6.582;2023-11-22T10:48:40;102977.38;;;5.36;82.98
73457;BME280;61691;53.072;6.582;2023-11-22T10:51:13;102950.50;;;5.27;82.73
73457;BME280;61691;53.072;6.582;2023-11-22T10:53:48;102937.47;;;5.24;82.31
73457;BME280;61691;53.072;6.582;2023-11-22T10:56:19;102949.22;;;5.40;82.78
73457;BME280;61691;53.072;6.582;2023-11-22T10:58:49;102899.03;;;5.20;82.55
73457;BME280;61691;53.072;6.582;2023-11-22T11:01:20;102905.53;;;5.34;81.41
73457;BME280;61691;53.072;6.582;2023-11-22T11:04:16;102909.25;;;5.29;81.46
73457;BME280;61691;53.072;6.582;2023-11-22T11:06:50;102890.34;;;5.18;81.75
73457;BME280;61691;53.072;6.582;2023-11-22T11:09:18;102905.09;;;5.22;81.72
73457;BME280;61691;53.072;6.582;2023-11-22T11:11:48;102856.75;;;4.99;81.61
73457;BME280;61691;53.072;6.582;2023-11-22T11:14:15;102896.22;;;5.26;81.71
73457;BME280;61691;53.072;6.582;2023-11-22T11:16:45;102890.22;;;5.21;81.73
73457;BME280;61691;53.072;6.582;2023-11-22T11:19:17;102903.00;;;5.33;81.48
73457;BME280;61691;53.072;6.582;2023-11-22T11:21:44;102897.72;;;5.33;81.12
73457;BME280;61691;53.072;6.582;2023-11-22T11:24:12;102893.34;;;5.33;80.75
73457;BME280;61691;53.072;6.582;2023-11-22T11:26:38;102913.09;;;5.45;80.80
73457;BME280;61691;53.072;6.582;2023-11-22T11:29:05;102910.16;;;5.54;80.96
73457;BME280;61691;53.072;6.582;2023-11-22T11:31:38;102826.22;;;5.22;80.53
73457;BME280;61691;53.072;6.582;2023-11-22T11:34:07;102853.19;;;5.53;80.11
73457;BME280;61691;53.072;6.582;2023-11-22T11:36:37;102870.28;;;5.66;80.09
73457;BME280;61691;53.072;6.582;2023-11-22T11:39:12;102889.94;;;5.81;79.96
73457;BME280;61691;53.072;6.582;2023-11-22T11:41:42;102876.81;;;5.79;78.81
73457;BME280;61691;53.072;6.582;2023-11-22T11:44:10;102857.47;;;5.80;79.08
73457;BME280;61691;53.072;6.582;2023-11-22T11:46:38;102867.63;;;5.93;78.58
73457;BME280;61691;53.072;6.582;2023-11-22T11:49:11;102867.50;;;5.96;78.56
73457;BME280;61691;53.072;6.582;2023-11-22T11:51:40;102870.72;;;6.04;78.75
73457;BME280;61691;53.072;6.582;2023-11-22T11:54:07;102874.06;;;6.09;78.74
73457;BME280;61691;53.072;6.582;2023-11-22T11:56:36;102873.69;;;6.18;78.47
73457;BME280;61691;53.072;6.582;2023-11-22T11:59:04;102861.25;;;6.23;78.04
73457;BME280;61691;53.072;6.582;2023-11-22T12:01:31;102851.31;;;6.30;78.43
73457;BME280;61691;53.072;6.582;2023-11-22T12:04:02;102865.28;;;6.32;76.66
73457;BME280;61691;53.072;6.582;2023-11-22T12:06:30;102872.22;;;6.34;77.38
73457;BME280;61691;53.072;6.582;2023-11-22T12:09:00;102840.03;;;6.26;76.31
73457;BME280;61691;53.072;6.582;2023-11-22T12:11:27;102847.25;;;6.21;74.07
73457;BME280;61691;53.072;6.582;2023-11-22T12:13:57;102803.34;;;5.98;75.84
73457;BME280;61691;53.072;6.582;2023-11-22T12:16:25;102817.97;;;6.07;74.47
73457;BME280;61691;53.072;6.582;2023-11-22T12:18:54;102833.75;;;6.07;74.37
73457;BME280;61691;53.072;6.582;2023-11-22T12:21:21;102835.56;;;6.05;74.74
73457;BME280;61691;53.072;6.582;2023-11-22T12:23:50;102790.78;;;5.81;74.53
73457;BME280;61691;53.072;6.582;2023-11-22T12:26:20;102828.59;;;6.04;74.39
73457;BME280;61691;53.072;6.582;2023-11-22T12:28:49;102797.56;;;5.89;74.21
73457;BME280;61691;53.072;6.582;2023-11-22T12:31:29;102787.22;;;5.82;74.25
73457;BME280;61691;53.072;6.582;2023-11-22T12:34:04;102794.03;;;5.90;74.41
73457;BME280;61691;53.072;6.582;2023-11-22T12:36:33;102821.78;;;5.98;74.02
73457;BME280;61691;53.072;6.582;2023-11-22T12:39:01;102794.09;;;5.87;74.01
73457;BME280;61691;53.072;6.582;2023-11-22T12:41:30;102790.56;;;5.88;73.37
73457;BME280;61691;53.072;6.582;2023-11-22T12:44:06;102786.19;;;5.88;72.87
73457;BME280;61691;53.072;6.582;2023-11-22T12:46:50;102750.84;;;5.70;73.37
73457;BME280;61691;53.072;6.582;2023-11-22T12:49:23;102789.66;;;5.89;73.41
73457;BME280;61691;53.072;6.582;2023-11-22T12:51:55;102786.13;;;5.90;73.45
73457;BME280;61691;53.072;6.582;2023-11-22T12:54:23;102784.41;;;5.89;73.23
73457;BME280;61691;53.072;6.582;2023-11-22T12:56:50;102774.88;;;5.84;73.15
73457;BME280;61691;53.072;6.582;2023-11-22T12:59:18;102786.03;;;5.93;72.83
73457;BME280;61691;53.072;6.582;2023-11-22T13:01:45;102719.78;;;5.57;72.69
73457;BME280;61691;53.072;6.582;2023-11-22T13:04:12;102773.16;;;5.83;72.61